sensor_id;sensor_type;location;lat;lon;timestamp;P1;durP1;ratioP1;P2;durP2;ratioP2
10963;SDS011;5534;48.784;9.190;2023-02-28T00:01:25;2.23;;;1.57;;
10963;SDS011;5534;48.784;9.190;2023-02-28T00:03:51;1.87;;;1.40;;
10963;SDS011;5534;48.784;9.190;2023-02-28T00:06:17;2.77;;;1.80;;
10963;SDS011;5534;48.784;9.190;2023-02-28T00:08:44;2.33;;;1.50;;
10963;SDS011;5534;48.784;9.190;2023-02-28T00:11:11;2.30;;;1.47;;
10963;SDS011;5534;48.784;9.190;2023-02-28T00:13:40;2.37;;;1.40;;
10963;SDS011;5534;48.784;9.190;2023-02-28T00:16:11;2.70;;;1.60;;
10963;SDS011;5534;48.784;9.190;2023-02-28T00:18:47;2.10;;;1.53;;
10963;SDS011;5534;48.784;9.190;2023-02-28T00:21:13;3.03;;;1.77;;
10963;SDS011;5534;48.784;9.190;2023-02-28T00:23:40;3.07;;;1.70;;
10963;SDS011;5534;48.784;9.190;2023-02-28T00:26:06;2.13;;;1.43;;
10963;SDS011;5534;48.784;9.190;2023-02-28T00:28:32;2.77;;;1.60;;
10963;SDS011;5534;48.784;9.190;2023-02-28T00:30:57;3.27;;;1.67;;
10963;SDS011;5534;48.784;9.190;2023-02-28T00:33:25;2.47;;;1.60;;
10963;SDS011;5534;48.784;9.190;2023-02-28T00:35:51;3.53;;;1.53;;
10963;SDS011;5534;48.784;9.190;2023-02-28T00:38:16;2.97;;;1.70;;
10963;SDS011;5534;48.784;9.190;2023-02-28T00:40:42;2.40;;;1.60;;
10963;SDS011;5534;48.784;9.190;2023-02-28T00:43:08;4.03;;;1.63;;
10963;SDS011;5534;48.784;9.190;2023-02-28T00:45:34;3.50;;;1.73;;
10963;SDS011;5534;48.784;9.190;2023-02-28T00:48:00;7.40;;;1.80;;
10963;SDS011;5534;48.784;9.190;2023-02-28T00:50:25;2.13;;;1.60;;
10963;SDS011;5534;48.784;9.190;2023-02-28T00:52:51;2.30;;;1.70;;
10963;SDS011;5534;48.784;9.190;2023-02-28T00:55:17;3.40;;;1.60;;
10963;SDS011;5534;48.784;9.190;2023-02-28T00:57:43;3.40;;;1.80;;
10963;SDS011;5534;48.784;9.190;2023-02-28T01:00:09;3.90;;;1.60;;
10963;SDS011;5534;48.784;9.190;2023-02-28T01:02:36;3.93;;;1.80;;
10963;SDS011;5534;48.784;9.190;2023-02-28T01:05:02;2.17;;;1.43;;
10963;SDS011;5534;48.784;9.190;2023-02-28T01:07:28;2.80;;;1.63;;
10963;SDS011;5534;48.784;9.190;2023-02-28T01:09:54;3.00;;;2.00;;
10963;SDS011;5534;48.784;9.190;2023-02-28T01:12:19;2.40;;;1.60;;
10963;SDS011;5534;48.784;9.190;2023-02-28T01:14:45;2.97;;;1.60;;
10963;SDS011;5534;48.784;9.190;2023-02-28T01:17:11;5.37;;;1.80;;
10963;SDS011;5534;48.784;9.190;2023-02-28T01:19:37;1.97;;;1.60;;
10963;SDS011;5534;48.784;9.190;2023-02-28T01:22:03;3.20;;;1.60;;
10963;SDS011;5534;48.784;9.190;2023-02-28T01:24:30;3.00;;;1.97;;
10963;SDS011;5534;48.784;9.190;2023-02-28T01:26:56;3.43;;;1.70;;
10963;SDS011;5534;48.784;9.190;2023-02-28T01:29:22;3.33;;;1.80;;
10963;SDS011;5534;48.784;9.190;2023-02-28T01:31:47;2.23;;;1.40;;
10963;SDS011;5534;48.784;9.190;2023-02-28T01:34:13;3.17;;;1.97;;
10963;SDS011;5534;48.784;9.190;2023-02-28T01:36:39;3.67;;;2.10;;
10963;SDS011;5534;48.784;9.190;2023-02-28T01:39:05;2.30;;;1.70;;
10963;SDS011;5534;48.784;9.190;2023-02-28T01:41:32;3.00;;;2.20;;
10963;SDS011;5534;48.784;9.190;2023-02-28T01:44:01;2.60;;;1.83;;
10963;SDS011;5534;48.784;9.190;2023-02-28T01:46:33;3.17;;;1.90;;
10963;SDS011;5534;48.784;9.190;2023-02-28T01:54:05;4.20;;;2.23;;
10963;SDS011;5534;48.784;9.190;2023-02-28T01:56:39;2.27;;;1.73;;
10963;SDS011;5534;48.784;9.190;2023-02-28T01:59:11;4.63;;;2.20;;
10963;SDS011;5534;48.784;9.190;2023-02-28T02:01:40;2.40;;;1.80;;
10963;SDS011;5534;48.784;9.190;2023-02-28T02:04:06;2.63;;;1.80;;
10963;SDS011;5534;48.784;9.190;2023-02-28T02:06:34;3.17;;;2.10;;
10963;SDS011;5534;48.784;9.190;2023-02-28T02:09:07;3.53;;;2.20;;
10963;SDS011;5534;48.784;9.190;2023-02-28T02:11:33;2.27;;;1.87;;
10963;SDS011;5534;48.784;9.190;2023-02-28T02:35:52;3.60;;;2.33;;
10963;SDS011;5534;48.784;9.190;2023-02-28T02:43:49;3.60;;;2.17;;
10963;SDS011;5534;48.784;9.190;2023-02-28T02:46:25;2.50;;;1.70;;
10963;SDS011;5534;48.784;9.190;2023-02-28T02:48:54;3.80;;;2.50;;
10963;SDS011;5534;48.784;9.190;2023-02-28T02:51:24;2.57;;;2.03;;
10963;SDS011;5534;48.784;9.190;2023-02-28T02:54:04;4.77;;;2.33;;
10963;SDS011;5534;48.784;9.190;2023-02-28T02:56:33;3.37;;;2.20;;
10963;SDS011;5534;48.784;9.190;2023-02-28T02:59:04;5.00;;;2.40;;
10963;SDS011;5534;48.784;9.190;2023-02-28T03:01:34;4.40;;;2.80;;
10963;SDS011;5534;48.784;9.190;2023-02-28T03:04:12;3.43;;;2.23;;
10963;SDS011;5534;48.784;9.190;2023-02-28T03:06:44;2.67;;;2.07;;
10963;SDS011;5534;48.784;9.190;2023-02-28T03:09:10;4.80;;;2.43;;
10963;SDS011;5534;48.784;9.190;2023-02-28T03:11:36;5.13;;;2.53;;
10963;SDS011;5534;48.784;9.190;2023-02-28T03:23:04;3.27;;;2.40;;
10963;SDS011;5534;48.784;9.190;2023-02-28T03:25:56;3.77;;;2.23;;
10963;SDS011;5534;48.784;9.190;2023-02-28T03:36:29;4.17;;;2.47;;
10963;SDS011;5534;48.784;9.190;2023-02-28T03:39:07;3.97;;;2.27;;
10963;SDS011;5534;48.784;9.190;2023-02-28T03:41:41;3.57;;;2.47;;
10963;SDS011;5534;48.784;9.190;2023-02-28T03:44:13;3.27;;;2.07;;
10963;SDS011;5534;48.784;9.190;2023-02-28T03:47:00;2.97;;;1.97;;
10963;SDS011;5534;48.784;9.190;2023-02-28T03:49:37;4.30;;;2.50;;
10963;SDS011;5534;48.784;9.190;2023-02-28T03:52:12;5.83;;;2.63;;
10963;SDS011;5534;48.784;9.190;2023-02-28T03:54:44;5.03;;;2.30;;
10963;SDS011;5534;48.784;9.190;2023-02-28T03:57:22;4.23;;;2.40;;
10963;SDS011;5534;48.784;9.190;2023-02-28T04:00:03;3.73;;;2.67;;
10963;SDS011;5534;48.784;9.190;2023-02-28T04:02:56;5.07;;;2.80;;
10963;SDS011;5534;48.784;9.190;2023-02-28T04:05:22;8.77;;;2.90;;
10963;SDS011;5534;48.784;9.190;2023-02-28T04:07:48;6.37;;;2.37;;
10963;SDS011;5534;48.784;9.190;2023-02-28T04:10:15;5.67;;;2.47;;
10963;SDS011;5534;48.784;9.190;2023-02-28T04:12:41;3.10;;;2.37;;
10963;SDS011;5534;48.784;9.190;2023-02-28T04:15:07;4.10;;;2.83;;
10963;SDS011;5534;48.784;9.190;2023-02-28T04:17:35;3.47;;;2.60;;
10963;SDS011;5534;48.784;9.190;2023-02-28T04:20:01;4.67;;;2.40;;
10963;SDS011;5534;48.784;9.190;2023-02-28T04:22:29;4.67;;;2.50;;
10963;SDS011;5534;48.784;9.190;2023-02-28T04:24:54;3.73;;;2.40;;
10963;SDS011;5534;48.784;9.190;2023-02-28T04:27:33;4.70;;;2.93;;
10963;SDS011;5534;48.784;9.190;2023-02-28T04:29:59;3.87;;;3.07;;
10963;SDS011;5534;48.784;9.190;2023-02-28T04:32:25;3.73;;;2.60;;
10963;SDS011;5534;48.784;9.190;2023-02-28T04:34:51;4.67;;;2.53;;
10963;SDS011;5534;48.784;9.190;2023-02-28T04:37:17;4.00;;;2.90;;
10963;SDS011;5534;48.784;9.190;2023-02-28T04:39:43;3.20;;;2.20;;
10963;SDS011;5534;48.784;9.190;2023-02-28T04:42:09;3.57;;;2.50;;
10963;SDS011;5534;48.784;9.190;2023-02-28T04:44:35;6.93;;;3.10;;
10963;SDS011;5534;48.784;9.190;2023-02-28T04:47:01;4.03;;;2.77;;
10963;SDS011;5534;48.784;9.190;2023-02-28T04:49:27;3.67;;;2.50;;
10963;SDS011;5534;48.784;9.190;2023-02-28T04:51:53;3.30;;;2.90;;
10963;SDS011;5534;48.784;9.190;2023-02-28T04:54:18;4.13;;;2.70;;
10963;SDS011;5534;48.784;9.190;2023-02-28T04:56:45;4.17;;;2.93;;
10963;SDS011;5534;48.784;9.190;2023-02-28T04:59:10;3.60;;;2.60;;
10963;SDS011;5534;48.784;9.190;2023-02-28T05:01:36;4.33;;;3.23;;
10963;SDS011;5534;48.784;9.190;2023-02-28T05:04:02;3.73;;;2.97;;
10963;SDS011;5534;48.784;9.190;2023-02-28T05:06:30;5.87;;;3.27;;
10963;SDS011;5534;48.784;9.190;2023-02-28T05:08:57;4.57;;;3.00;;
10963;SDS011;5534;48.784;9.190;2023-02-28T05:11:25;3.97;;;2.50;;
10963;SDS011;5534;48.784;9.190;2023-02-28T05:13:59;5.50;;;2.93;;
10963;SDS011;5534;48.784;9.190;2023-02-28T05:16:29;5.67;;;3.27;;
10963;SDS011;5534;48.784;9.190;2023-02-28T05:18:55;4.67;;;2.97;;
10963;SDS011;5534;48.784;9.190;2023-02-28T05:23:52;4.10;;;3.20;;
10963;SDS011;5534;48.784;9.190;2023-02-28T05:26:19;4.30;;;2.80;;
10963;SDS011;5534;48.784;9.190;2023-02-28T05:28:45;4.27;;;2.87;;
10963;SDS011;5534;48.784;9.190;2023-02-28T05:31:11;5.93;;;3.20;;
10963;SDS011;5534;48.784;9.190;2023-02-28T05:33:37;4.13;;;3.07;;
10963;SDS011;5534;48.784;9.190;2023-02-28T05:36:03;4.00;;;3.00;;
10963;SDS011;5534;48.784;9.190;2023-02-28T05:38:29;5.47;;;3.10;;
10963;SDS011;5534;48.784;9.190;2023-02-28T05:40:55;4.93;;;3.23;;
10963;SDS011;5534;48.784;9.190;2023-02-28T05:43:21;5.40;;;3.50;;
10963;SDS011;5534;48.784;9.190;2023-02-28T05:45:47;3.63;;;2.90;;
10963;SDS011;5534;48.784;9.190;2023-02-28T05:48:13;4.90;;;3.23;;
10963;SDS011;5534;48.784;9.190;2023-02-28T05:50:39;5.87;;;3.93;;
10963;SDS011;5534;48.784;9.190;2023-02-28T05:53:04;4.63;;;3.17;;
10963;SDS011;5534;48.784;9.190;2023-02-28T05:55:30;4.87;;;3.27;;
10963;SDS011;5534;48.784;9.190;2023-02-28T05:57:56;5.70;;;3.77;;
10963;SDS011;5534;48.784;9.190;2023-02-28T06:00:22;5.10;;;3.23;;
10963;SDS011;5534;48.784;9.190;2023-02-28T06:02:48;5.33;;;3.23;;
10963;SDS011;5534;48.784;9.190;2023-02-28T06:05:18;6.03;;;3.30;;
10963;SDS011;5534;48.784;9.190;2023-02-28T06:07:44;4.43;;;3.50;;
10963;SDS011;5534;48.784;9.190;2023-02-28T06:10:10;5.07;;;3.27;;
10963;SDS011;5534;48.784;9.190;2023-02-28T06:12:38;4.90;;;3.13;;
10963;SDS011;5534;48.784;9.190;2023-02-28T06:15:04;5.67;;;3.50;;
10963;SDS011;5534;48.784;9.190;2023-02-28T06:17:30;4.90;;;3.37;;
10963;SDS011;5534;48.784;9.190;2023-02-28T06:19:56;5.83;;;3.60;;
10963;SDS011;5534;48.784;9.190;2023-02-28T06:22:21;4.53;;;3.37;;
10963;SDS011;5534;48.784;9.190;2023-02-28T06:24:47;6.63;;;3.40;;
10963;SDS011;5534;48.784;9.190;2023-02-28T06:27:13;6.77;;;3.40;;
10963;SDS011;5534;48.784;9.190;2023-02-28T06:29:39;6.63;;;3.70;;
10963;SDS011;5534;48.784;9.190;2023-02-28T06:32:08;5.53;;;3.33;;
10963;SDS011;5534;48.784;9.190;2023-02-28T06:34:34;7.10;;;3.60;;
10963;SDS011;5534;48.784;9.190;2023-02-28T06:37:01;5.53;;;3.57;;
10963;SDS011;5534;48.784;9.190;2023-02-28T06:39:28;5.50;;;3.93;;
10963;SDS011;5534;48.784;9.190;2023-02-28T06:41:56;6.47;;;3.57;;
10963;SDS011;5534;48.784;9.190;2023-02-28T06:44:22;5.67;;;3.50;;
10963;SDS011;5534;48.784;9.190;2023-02-28T06:46:49;5.77;;;3.43;;
10963;SDS011;5534;48.784;9.190;2023-02-28T06:49:15;5.77;;;3.67;;
10963;SDS011;5534;48.784;9.190;2023-02-28T06:51:42;6.83;;;3.60;;
10963;SDS011;5534;48.784;9.190;2023-02-28T06:54:11;8.90;;;3.53;;
10963;SDS011;5534;48.784;9.190;2023-02-28T06:56:38;7.67;;;3.83;;
10963;SDS011;5534;48.784;9.190;2023-02-28T06:59:04;6.23;;;3.97;;
10963;SDS011;5534;48.784;9.190;2023-02-28T07:01:30;5.93;;;3.90;;
10963;SDS011;5534;48.784;9.190;2023-02-28T07:03:57;6.93;;;4.47;;
10963;SDS011;5534;48.784;9.190;2023-02-28T07:06:23;7.83;;;3.70;;
10963;SDS011;5534;48.784;9.190;2023-02-28T07:08:50;6.00;;;3.67;;
10963;SDS011;5534;48.784;9.190;2023-02-28T07:11:20;6.27;;;3.53;;
10963;SDS011;5534;48.784;9.190;2023-02-28T07:13:48;6.17;;;3.83;;
10963;SDS011;5534;48.784;9.190;2023-02-28T07:16:16;6.63;;;3.57;;
10963;SDS011;5534;48.784;9.190;2023-02-28T07:18:42;6.23;;;3.73;;
10963;SDS011;5534;48.784;9.190;2023-02-28T07:21:09;6.23;;;3.50;;
10963;SDS011;5534;48.784;9.190;2023-02-28T07:23:35;6.30;;;4.00;;
10963;SDS011;5534;48.784;9.190;2023-02-28T07:26:03;6.90;;;4.33;;
10963;SDS011;5534;48.784;9.190;2023-02-28T07:28:36;5.90;;;4.03;;
10963;SDS011;5534;48.784;9.190;2023-02-28T07:31:06;7.30;;;4.17;;
10963;SDS011;5534;48.784;9.190;2023-02-28T07:33:34;6.47;;;3.77;;
10963;SDS011;5534;48.784;9.190;2023-02-28T07:36:03;5.43;;;3.87;;
10963;SDS011;5534;48.784;9.190;2023-02-28T07:38:33;6.00;;;3.90;;
10963;SDS011;5534;48.784;9.190;2023-02-28T07:41:00;5.83;;;4.07;;
10963;SDS011;5534;48.784;9.190;2023-02-28T07:43:29;9.07;;;4.60;;
10963;SDS011;5534;48.784;9.190;2023-02-28T07:46:00;5.90;;;4.03;;
10963;SDS011;5534;48.784;9.190;2023-02-28T07:48:30;10.77;;;4.20;;
10963;SDS011;5534;48.784;9.190;2023-02-28T07:50:57;7.73;;;3.87;;
10963;SDS011;5534;48.784;9.190;2023-02-28T07:53:23;7.47;;;5.00;;
10963;SDS011;5534;48.784;9.190;2023-02-28T07:55:49;8.93;;;4.30;;
10963;SDS011;5534;48.784;9.190;2023-02-28T07:58:15;5.27;;;3.73;;
10963;SDS011;5534;48.784;9.190;2023-02-28T08:00:41;7.43;;;4.60;;
10963;SDS011;5534;48.784;9.190;2023-02-28T08:03:08;7.23;;;4.77;;
10963;SDS011;5534;48.784;9.190;2023-02-28T08:05:40;5.43;;;3.70;;
10963;SDS011;5534;48.784;9.190;2023-02-28T08:08:06;7.77;;;4.13;;
10963;SDS011;5534;48.784;9.190;2023-02-28T08:10:32;6.80;;;4.63;;
10963;SDS011;5534;48.784;9.190;2023-02-28T08:12:58;10.80;;;6.83;;
10963;SDS011;5534;48.784;9.190;2023-02-28T08:15:24;5.90;;;4.23;;
10963;SDS011;5534;48.784;9.190;2023-02-28T08:17:49;9.63;;;4.40;;
10963;SDS011;5534;48.784;9.190;2023-02-28T08:20:15;7.87;;;4.70;;
10963;SDS011;5534;48.784;9.190;2023-02-28T08:22:41;6.50;;;4.33;;
10963;SDS011;5534;48.784;9.190;2023-02-28T08:25:07;7.37;;;4.20;;
10963;SDS011;5534;48.784;9.190;2023-02-28T08:27:34;8.93;;;4.67;;
10963;SDS011;5534;48.784;9.190;2023-02-28T08:30:00;7.40;;;4.47;;
10963;SDS011;5534;48.784;9.190;2023-02-28T08:32:26;7.00;;;4.53;;
10963;SDS011;5534;48.784;9.190;2023-02-28T08:34:52;8.60;;;4.93;;
10963;SDS011;5534;48.784;9.190;2023-02-28T08:37:18;7.47;;;4.30;;
10963;SDS011;5534;48.784;9.190;2023-02-28T08:39:44;6.27;;;4.43;;
10963;SDS011;5534;48.784;9.190;2023-02-28T08:42:10;7.07;;;5.07;;
10963;SDS011;5534;48.784;9.190;2023-02-28T08:44:35;7.70;;;4.90;;
10963;SDS011;5534;48.784;9.190;2023-02-28T08:47:01;8.23;;;4.53;;
10963;SDS011;5534;48.784;9.190;2023-02-28T08:49:27;9.90;;;5.43;;
10963;SDS011;5534;48.784;9.190;2023-02-28T08:51:53;7.87;;;4.70;;
10963;SDS011;5534;48.784;9.190;2023-02-28T08:54:20;8.07;;;4.67;;
10963;SDS011;5534;48.784;9.190;2023-02-28T08:56:46;6.60;;;4.87;;
10963;SDS011;5534;48.784;9.190;2023-02-28T08:59:12;10.20;;;5.10;;
10963;SDS011;5534;48.784;9.190;2023-02-28T09:01:38;7.03;;;4.87;;
10963;SDS011;5534;48.784;9.190;2023-02-28T09:04:04;8.20;;;4.50;;
10963;SDS011;5534;48.784;9.190;2023-02-28T09:06:32;7.13;;;4.33;;
10963;SDS011;5534;48.784;9.190;2023-02-28T09:08:58;7.67;;;4.77;;
10963;SDS011;5534;48.784;9.190;2023-02-28T09:11:26;8.20;;;4.33;;
10963;SDS011;5534;48.784;9.190;2023-02-28T09:13:53;7.53;;;4.90;;
10963;SDS011;5534;48.784;9.190;2023-02-28T09:16:20;8.77;;;5.00;;
10963;SDS011;5534;48.784;9.190;2023-02-28T09:18:47;7.57;;;4.93;;
10963;SDS011;5534;48.784;9.190;2023-02-28T09:21:14;6.00;;;4.77;;
10963;SDS011;5534;48.784;9.190;2023-02-28T09:23:42;7.53;;;4.70;;
10963;SDS011;5534;48.784;9.190;2023-02-28T09:26:13;6.93;;;4.60;;
10963;SDS011;5534;48.784;9.190;2023-02-28T09:28:43;7.93;;;4.70;;
10963;SDS011;5534;48.784;9.190;2023-02-28T09:31:23;6.23;;;4.37;;
10963;SDS011;5534;48.784;9.190;2023-02-28T09:33:53;7.07;;;4.50;;
10963;SDS011;5534;48.784;9.190;2023-02-28T09:36:22;10.23;;;5.40;;
10963;SDS011;5534;48.784;9.190;2023-02-28T09:38:49;7.80;;;5.03;;
10963;SDS011;5534;48.784;9.190;2023-02-28T09:41:23;9.37;;;5.07;;
10963;SDS011;5534;48.784;9.190;2023-02-28T09:43:57;8.03;;;4.87;;
10963;SDS011;5534;48.784;9.190;2023-02-28T09:52:09;7.73;;;4.90;;
10963;SDS011;5534;48.784;9.190;2023-02-28T09:54:39;6.73;;;4.80;;
10963;SDS011;5534;48.784;9.190;2023-02-28T09:57:07;8.13;;;5.90;;
10963;SDS011;5534;48.784;9.190;2023-02-28T10:05:08;7.07;;;5.07;;
10963;SDS011;5534;48.784;9.190;2023-02-28T10:10:33;7.57;;;5.17;;
10963;SDS011;5534;48.784;9.190;2023-02-28T10:21:35;7.20;;;5.20;;
10963;SDS011;5534;48.784;9.190;2023-02-28T10:26:56;7.70;;;5.13;;
10963;SDS011;5534;48.784;9.190;2023-02-28T10:29:27;6.53;;;4.67;;
10963;SDS011;5534;48.784;9.190;2023-02-28T10:31:56;9.50;;;5.07;;
10963;SDS011;5534;48.784;9.190;2023-02-28T10:34:24;7.47;;;5.37;;
10963;SDS011;5534;48.784;9.190;2023-02-28T10:36:50;8.57;;;5.07;;
10963;SDS011;5534;48.784;9.190;2023-02-28T10:42:04;7.53;;;4.93;;
10963;SDS011;5534;48.784;9.190;2023-02-28T10:44:43;15.63;;;9.37;;
10963;SDS011;5534;48.784;9.190;2023-02-28T10:47:14;7.00;;;5.30;;
10963;SDS011;5534;48.784;9.190;2023-02-28T10:49:48;8.67;;;4.80;;
10963;SDS011;5534;48.784;9.190;2023-02-28T10:52:31;7.43;;;5.07;;
10963;SDS011;5534;48.784;9.190;2023-02-28T10:55:20;9.87;;;5.63;;
10963;SDS011;5534;48.784;9.190;2023-02-28T10:57:48;6.60;;;5.07;;
10963;SDS011;5534;48.784;9.190;2023-02-28T11:00:19;6.97;;;4.90;;
10963;SDS011;5534;48.784;9.190;2023-02-28T11:02:47;8.33;;;5.17;;
10963;SDS011;5534;48.784;9.190;2023-02-28T11:05:25;5.73;;;4.47;;
10963;SDS011;5534;48.784;9.190;2023-02-28T11:07:58;10.27;;;5.60;;
10963;SDS011;5534;48.784;9.190;2023-02-28T11:10:46;7.70;;;5.60;;
10963;SDS011;5534;48.784;9.190;2023-02-28T11:13:24;7.53;;;5.43;;
10963;SDS011;5534;48.784;9.190;2023-02-28T11:15:55;5.93;;;4.87;;
10963;SDS011;5534;48.784;9.190;2023-02-28T11:18:27;6.43;;;4.90;;
10963;SDS011;5534;48.784;9.190;2023-02-28T11:21:19;7.17;;;4.73;;
10963;SDS011;5534;48.784;9.190;2023-02-28T11:26:35;8.37;;;5.43;;
10963;SDS011;5534;48.784;9.190;2023-02-28T11:29:11;7.70;;;5.10;;
10963;SDS011;5534;48.784;9.190;2023-02-28T11:31:37;7.63;;;5.10;;
10963;SDS011;5534;48.784;9.190;2023-02-28T11:34:10;7.03;;;5.20;;
10963;SDS011;5534;48.784;9.190;2023-02-28T11:36:49;8.97;;;5.30;;
10963;SDS011;5534;48.784;9.190;2023-02-28T11:39:15;7.50;;;4.93;;
10963;SDS011;5534;48.784;9.190;2023-02-28T11:41:50;7.47;;;5.07;;
10963;SDS011;5534;48.784;9.190;2023-02-28T11:44:34;8.57;;;5.63;;
10963;SDS011;5534;48.784;9.190;2023-02-28T11:47:07;8.03;;;5.53;;
10963;SDS011;5534;48.784;9.190;2023-02-28T11:50:04;8.07;;;5.50;;
10963;SDS011;5534;48.784;9.190;2023-02-28T11:52:52;7.60;;;5.10;;
10963;SDS011;5534;48.784;9.190;2023-02-28T11:55:20;6.27;;;5.03;;
10963;SDS011;5534;48.784;9.190;2023-02-28T11:58:39;7.70;;;4.57;;
10963;SDS011;5534;48.784;9.190;2023-02-28T12:04:03;6.63;;;4.93;;
10963;SDS011;5534;48.784;9.190;2023-02-28T12:06:33;8.70;;;6.10;;
10963;SDS011;5534;48.784;9.190;2023-02-28T12:14:42;6.60;;;5.13;;
10963;SDS011;5534;48.784;9.190;2023-02-28T12:20:12;5.97;;;4.87;;
10963;SDS011;5534;48.784;9.190;2023-02-28T12:23:30;6.63;;;5.03;;
10963;SDS011;5534;48.784;9.190;2023-02-28T12:28:32;7.33;;;5.60;;
10963;SDS011;5534;48.784;9.190;2023-02-28T12:33:36;7.27;;;5.27;;
10963;SDS011;5534;48.784;9.190;2023-02-28T12:36:09;7.30;;;4.93;;
10963;SDS011;5534;48.784;9.190;2023-02-28T12:38:44;6.77;;;4.53;;
10963;SDS011;5534;48.784;9.190;2023-02-28T12:41:18;6.63;;;5.07;;
10963;SDS011;5534;48.784;9.190;2023-02-28T12:43:49;6.40;;;4.60;;
10963;SDS011;5534;48.784;9.190;2023-02-28T12:46:24;8.87;;;4.93;;
10963;SDS011;5534;48.784;9.190;2023-02-28T12:49:14;8.13;;;5.50;;
10963;SDS011;5534;48.784;9.190;2023-02-28T12:51:44;7.60;;;5.23;;
10963;SDS011;5534;48.784;9.190;2023-02-28T12:56:54;7.97;;;5.43;;
10963;SDS011;5534;48.784;9.190;2023-02-28T13:10:47;7.20;;;5.10;;
10963;SDS011;5534;48.784;9.190;2023-02-28T13:13:24;7.17;;;5.53;;
10963;SDS011;5534;48.784;9.190;2023-02-28T13:18:45;7.40;;;4.43;;
10963;SDS011;5534;48.784;9.190;2023-02-28T13:21:22;8.63;;;5.30;;
10963;SDS011;5534;48.784;9.190;2023-02-28T13:34:46;7.53;;;4.77;;
10963;SDS011;5534;48.784;9.190;2023-02-28T14:06:40;6.03;;;4.27;;
10963;SDS011;5534;48.784;9.190;2023-02-28T14:20:44;7.37;;;5.03;;
10963;SDS011;5534;48.784;9.190;2023-02-28T14:23:21;5.80;;;4.63;;
10963;SDS011;5534;48.784;9.190;2023-02-28T14:28:44;5.97;;;4.53;;
10963;SDS011;5534;48.784;9.190;2023-02-28T14:31:17;6.43;;;4.87;;
10963;SDS011;5534;48.784;9.190;2023-02-28T14:34:12;7.07;;;5.13;;
10963;SDS011;5534;48.784;9.190;2023-02-28T14:37:01;6.30;;;5.00;;
10963;SDS011;5534;48.784;9.190;2023-02-28T14:39:28;7.17;;;5.40;;
10963;SDS011;5534;48.784;9.190;2023-02-28T14:41:56;10.00;;;5.60;;
10963;SDS011;5534;48.784;9.190;2023-02-28T14:44:28;6.73;;;5.07;;
10963;SDS011;5534;48.784;9.190;2023-02-28T14:46:55;6.53;;;4.57;;
10963;SDS011;5534;48.784;9.190;2023-02-28T14:52:11;6.23;;;4.57;;
10963;SDS011;5534;48.784;9.190;2023-02-28T14:54:45;7.77;;;5.00;;
10963;SDS011;5534;48.784;9.190;2023-02-28T15:00:06;7.10;;;4.90;;
10963;SDS011;5534;48.784;9.190;2023-02-28T15:02:36;6.93;;;4.60;;
10963;SDS011;5534;48.784;9.190;2023-02-28T15:05:27;8.03;;;4.63;;
10963;SDS011;5534;48.784;9.190;2023-02-28T15:08:00;6.90;;;4.90;;
10963;SDS011;5534;48.784;9.190;2023-02-28T15:10:28;7.60;;;5.20;;
10963;SDS011;5534;48.784;9.190;2023-02-28T15:12:57;5.90;;;5.00;;
10963;SDS011;5534;48.784;9.190;2023-02-28T15:18:07;8.83;;;5.43;;
10963;SDS011;5534;48.784;9.190;2023-02-28T15:20:41;8.33;;;5.67;;
10963;SDS011;5534;48.784;9.190;2023-02-28T15:23:09;7.10;;;4.90;;
10963;SDS011;5534;48.784;9.190;2023-02-28T15:25:36;8.13;;;5.60;;
10963;SDS011;5534;48.784;9.190;2023-02-28T15:28:02;7.13;;;5.27;;
10963;SDS011;5534;48.784;9.190;2023-02-28T15:30:31;10.03;;;5.37;;
10963;SDS011;5534;48.784;9.190;2023-02-28T15:35:38;6.63;;;4.73;;
10963;SDS011;5534;48.784;9.190;2023-02-28T15:38:13;7.40;;;4.93;;
10963;SDS011;5534;48.784;9.190;2023-02-28T15:40:51;7.53;;;4.80;;
10963;SDS011;5534;48.784;9.190;2023-02-28T15:51:01;11.73;;;6.63;;
10963;SDS011;5534;48.784;9.190;2023-02-28T15:53:32;8.57;;;5.60;;
10963;SDS011;5534;48.784;9.190;2023-02-28T15:56:02;7.67;;;5.40;;
10963;SDS011;5534;48.784;9.190;2023-02-28T15:58:30;8.37;;;4.93;;
10963;SDS011;5534;48.784;9.190;2023-02-28T16:01:01;6.90;;;4.60;;
10963;SDS011;5534;48.784;9.190;2023-02-28T16:03:43;9.33;;;5.50;;
10963;SDS011;5534;48.784;9.190;2023-02-28T16:09:13;8.03;;;5.30;;
10963;SDS011;5534;48.784;9.190;2023-02-28T16:11:41;8.27;;;5.20;;
10963;SDS011;5534;48.784;9.190;2023-02-28T16:14:16;5.53;;;4.23;;
10963;SDS011;5534;48.784;9.190;2023-02-28T16:16:46;6.90;;;4.87;;
10963;SDS011;5534;48.784;9.190;2023-02-28T16:19:14;10.20;;;5.87;;
10963;SDS011;5534;48.784;9.190;2023-02-28T16:21:40;7.70;;;5.33;;
10963;SDS011;5534;48.784;9.190;2023-02-28T16:24:06;7.63;;;5.33;;
10963;SDS011;5534;48.784;9.190;2023-02-28T16:26:32;7.00;;;5.43;;
10963;SDS011;5534;48.784;9.190;2023-02-28T16:28:59;9.20;;;5.47;;
10963;SDS011;5534;48.784;9.190;2023-02-28T16:31:27;8.10;;;5.17;;
10963;SDS011;5534;48.784;9.190;2023-02-28T16:33:55;7.87;;;5.10;;
10963;SDS011;5534;48.784;9.190;2023-02-28T16:36:23;8.67;;;5.23;;
10963;SDS011;5534;48.784;9.190;2023-02-28T16:38:53;7.73;;;5.23;;
10963;SDS011;5534;48.784;9.190;2023-02-28T16:41:23;7.17;;;5.03;;
10963;SDS011;5534;48.784;9.190;2023-02-28T16:43:51;7.53;;;5.43;;
10963;SDS011;5534;48.784;9.190;2023-02-28T16:46:19;8.30;;;5.60;;
10963;SDS011;5534;48.784;9.190;2023-02-28T16:48:46;7.63;;;5.13;;
10963;SDS011;5534;48.784;9.190;2023-02-28T16:51:16;9.33;;;5.67;;
10963;SDS011;5534;48.784;9.190;2023-02-28T16:53:43;8.13;;;5.23;;
10963;SDS011;5534;48.784;9.190;2023-02-28T16:56:17;9.67;;;5.60;;
10963;SDS011;5534;48.784;9.190;2023-02-28T16:58:45;7.13;;;5.30;;
10963;SDS011;5534;48.784;9.190;2023-02-28T17:01:12;8.43;;;5.37;;
10963;SDS011;5534;48.784;9.190;2023-02-28T17:03:38;11.13;;;5.30;;
10963;SDS011;5534;48.784;9.190;2023-02-28T17:06:05;9.07;;;5.83;;
10963;SDS011;5534;48.784;9.190;2023-02-28T17:08:38;10.10;;;6.17;;
10963;SDS011;5534;48.784;9.190;2023-02-28T17:11:04;11.80;;;7.67;;
10963;SDS011;5534;48.784;9.190;2023-02-28T17:13:30;12.30;;;8.43;;
10963;SDS011;5534;48.784;9.190;2023-02-28T17:15:55;10.10;;;6.40;;
10963;SDS011;5534;48.784;9.190;2023-02-28T17:18:21;8.57;;;5.87;;
10963;SDS011;5534;48.784;9.190;2023-02-28T17:20:47;8.13;;;5.53;;
10963;SDS011;5534;48.784;9.190;2023-02-28T17:23:13;9.03;;;6.20;;
10963;SDS011;5534;48.784;9.190;2023-02-28T17:25:39;8.33;;;5.53;;
10963;SDS011;5534;48.784;9.190;2023-02-28T17:28:05;7.77;;;5.67;;
10963;SDS011;5534;48.784;9.190;2023-02-28T17:30:31;8.87;;;5.50;;
10963;SDS011;5534;48.784;9.190;2023-02-28T17:32:59;7.90;;;5.90;;
10963;SDS011;5534;48.784;9.190;2023-02-28T17:35:25;9.13;;;5.57;;
10963;SDS011;5534;48.784;9.190;2023-02-28T17:37:52;8.97;;;5.77;;
10963;SDS011;5534;48.784;9.190;2023-02-28T17:40:19;8.13;;;5.57;;
10963;SDS011;5534;48.784;9.190;2023-02-28T17:42:48;10.93;;;5.90;;
10963;SDS011;5534;48.784;9.190;2023-02-28T17:45:14;8.80;;;6.07;;
10963;SDS011;5534;48.784;9.190;2023-02-28T17:47:40;8.07;;;5.57;;
10963;SDS011;5534;48.784;9.190;2023-02-28T17:50:19;7.97;;;6.27;;
10963;SDS011;5534;48.784;9.190;2023-02-28T17:52:47;8.37;;;5.63;;
10963;SDS011;5534;48.784;9.190;2023-02-28T17:55:15;10.70;;;6.10;;
10963;SDS011;5534;48.784;9.190;2023-02-28T17:57:50;12.33;;;6.60;;
10963;SDS011;5534;48.784;9.190;2023-02-28T18:00:19;9.07;;;6.03;;
10963;SDS011;5534;48.784;9.190;2023-02-28T18:02:49;9.93;;;6.97;;
10963;SDS011;5534;48.784;9.190;2023-02-28T18:05:16;9.03;;;5.97;;
10963;SDS011;5534;48.784;9.190;2023-02-28T18:07:42;13.67;;;7.90;;
10963;SDS011;5534;48.784;9.190;2023-02-28T18:10:18;9.23;;;7.07;;
10963;SDS011;5534;48.784;9.190;2023-02-28T18:12:45;12.40;;;6.73;;
10963;SDS011;5534;48.784;9.190;2023-02-28T18:15:13;10.63;;;7.47;;
10963;SDS011;5534;48.784;9.190;2023-02-28T18:17:40;10.70;;;7.07;;
10963;SDS011;5534;48.784;9.190;2023-02-28T18:20:07;12.00;;;7.13;;
10963;SDS011;5534;48.784;9.190;2023-02-28T18:22:35;12.50;;;8.00;;
10963;SDS011;5534;48.784;9.190;2023-02-28T18:25:04;13.57;;;7.47;;
10963;SDS011;5534;48.784;9.190;2023-02-28T18:27:33;13.53;;;8.27;;